sensor_id;sensor_type;location;lat;lon;timestamp;P1;durP1;ratioP1;P2;durP2;ratioP2
79533;SDS011;68982;52.160;6.736;2024-03-23T00:56:07;18.30;;;6.18;;
79533;SDS011;68982;52.160;6.736;2024-03-23T00:58:32;16.08;;;6.30;;
79533;SDS011;68982;52.160;6.736;2024-03-23T01:00:58;21.37;;;7.00;;
79533;SDS011;68982;52.160;6.736;2024-03-23T01:03:23;18.37;;;7.10;;
79533;SDS011;68982;52.160;6.736;2024-03-23T01:05:48;16.93;;;6.40;;
79533;SDS011;68982;52.160;6.736;2024-03-23T01:08:14;15.73;;;5.97;;
79533;SDS011;68982;52.160;6.736;2024-03-23T01:10:39;20.05;;;6.18;;
79533;SDS011;68982;52.160;6.736;2024-03-23T01:13:05;14.77;;;5.40;;
79533;SDS011;68982;52.160;6.736;2024-03-23T01:15:30;25.83;;;6.17;;
79533;SDS011;68982;52.160;6.736;2024-03-23T01:17:55;17.37;;;6.80;;
79533;SDS011;68982;52.160;6.736;2024-03-23T01:20:21;23.00;;;6.93;;
79533;SDS011;68982;52.160;6.736;2024-03-23T01:22:46;18.23;;;5.75;;
79533;SDS011;68982;52.160;6.736;2024-03-23T01:25:11;22.02;;;5.75;;
79533;SDS011;68982;52.160;6.736;2024-03-23T01:27:37;16.60;;;6.95;;
79533;SDS011;68982;52.160;6.736;2024-03-23T01:30:02;22.08;;;6.80;;
79533;SDS011;68982;52.160;6.736;2024-03-23T01:32:28;20.42;;;6.00;;
79533;SDS011;68982;52.160;6.736;2024-03-23T01:34:53;17.53;;;6.70;;
79533;SDS011;68982;52.160;6.736;2024-03-23T01:37:18;20.00;;;6.23;;
79533;SDS011;68982;52.160;6.736;2024-03-23T01:39:44;21.75;;;6.75;;
79533;SDS011;68982;52.160;6.736;2024-03-23T01:42:09;14.00;;;5.20;;
79533;SDS011;68982;52.160;6.736;2024-03-23T01:44:34;20.92;;;5.43;;
79533;SDS011;68982;52.160;6.736;2024-03-23T01:47:00;18.73;;;6.40;;
79533;SDS011;68982;52.160;6.736;2024-03-23T01:49:25;18.55;;;5.93;;
79533;SDS011;68982;52.160;6.736;2024-03-23T01:51:51;23.30;;;5.88;;
79533;SDS011;68982;52.160;6.736;2024-03-23T01:54:16;26.48;;;5.65;;
79533;SDS011;68982;52.160;6.736;2024-03-23T01:56:41;18.00;;;6.32;;
79533;SDS011;68982;52.160;6.736;2024-03-23T01:59:07;21.25;;;5.72;;
79533;SDS011;68982;52.160;6.736;2024-03-23T02:01:33;20.30;;;6.55;;
79533;SDS011;68982;52.160;6.736;2024-03-23T02:04:01;16.88;;;5.20;;
79533;SDS011;68982;52.160;6.736;2024-03-23T02:06:26;19.98;;;5.97;;
79533;SDS011;68982;52.160;6.736;2024-03-23T02:08:53;19.50;;;5.18;;
79533;SDS011;68982;52.160;6.736;2024-03-23T02:11:19;15.02;;;5.65;;
79533;SDS011;68982;52.160;6.736;2024-03-23T02:13:44;20.48;;;5.22;;
79533;SDS011;68982;52.160;6.736;2024-03-23T02:16:10;19.52;;;6.00;;
79533;SDS011;68982;52.160;6.736;2024-03-23T02:18:35;24.80;;;5.80;;
79533;SDS011;68982;52.160;6.736;2024-03-23T02:21:01;17.23;;;4.95;;
79533;SDS011;68982;52.160;6.736;2024-03-23T02:23:26;28.73;;;6.63;;
79533;SDS011;68982;52.160;6.736;2024-03-23T02:25:52;17.65;;;5.47;;
79533;SDS011;68982;52.160;6.736;2024-03-23T02:28:18;17.85;;;5.93;;
79533;SDS011;68982;52.160;6.736;2024-03-23T02:30:44;21.17;;;6.63;;
79533;SDS011;68982;52.160;6.736;2024-03-23T02:33:09;17.57;;;6.10;;
79533;SDS011;68982;52.160;6.736;2024-03-23T02:35:34;20.70;;;5.90;;
79533;SDS011;68982;52.160;6.736;2024-03-23T02:38:00;17.50;;;5.90;;
79533;SDS011;68982;52.160;6.736;2024-03-23T02:40:25;17.38;;;5.32;;
79533;SDS011;68982;52.160;6.736;2024-03-23T02:42:51;18.25;;;5.75;;
79533;SDS011;68982;52.160;6.736;2024-03-23T02:45:17;21.85;;;6.53;;
79533;SDS011;68982;52.160;6.736;2024-03-23T02:47:42;19.08;;;6.60;;
79533;SDS011;68982;52.160;6.736;2024-03-23T02:50:08;21.25;;;7.25;;
79533;SDS011;68982;52.160;6.736;2024-03-23T02:52:34;20.98;;;6.53;;
79533;SDS011;68982;52.160;6.736;2024-03-23T02:54:59;19.42;;;5.75;;
79533;SDS011;68982;52.160;6.736;2024-03-23T02:57:26;16.63;;;5.82;;
79533;SDS011;68982;52.160;6.736;2024-03-23T02:59:52;17.50;;;6.20;;
79533;SDS011;68982;52.160;6.736;2024-03-23T03:02:17;22.07;;;7.30;;
79533;SDS011;68982;52.160;6.736;2024-03-23T03:04:43;24.83;;;7.35;;
79533;SDS011;68982;52.160;6.736;2024-03-23T03:07:08;19.25;;;7.07;;
79533;SDS011;68982;52.160;6.736;2024-03-23T03:09:33;15.70;;;5.93;;
79533;SDS011;68982;52.160;6.736;2024-03-23T03:12:00;25.25;;;7.80;;
79533;SDS011;68982;52.160;6.736;2024-03-23T03:14:28;23.88;;;6.90;;
79533;SDS011;68982;52.160;6.736;2024-03-23T03:16:54;20.75;;;7.50;;
79533;SDS011;68982;52.160;6.736;2024-03-23T03:19:19;20.20;;;6.65;;
79533;SDS011;68982;52.160;6.736;2024-03-23T03:21:44;22.67;;;6.63;;
79533;SDS011;68982;52.160;6.736;2024-03-23T03:24:10;23.23;;;7.15;;
79533;SDS011;68982;52.160;6.736;2024-03-23T03:26:35;21.20;;;7.20;;
79533;SDS011;68982;52.160;6.736;2024-03-23T03:29:01;20.80;;;7.22;;
79533;SDS011;68982;52.160;6.736;2024-03-23T03:31:27;16.13;;;7.32;;
79533;SDS011;68982;52.160;6.736;2024-03-23T03:33:52;23.20;;;7.03;;
79533;SDS011;68982;52.160;6.736;2024-03-23T03:36:17;19.63;;;6.40;;
79533;SDS011;68982;52.160;6.736;2024-03-23T03:38:43;22.08;;;7.80;;
79533;SDS011;68982;52.160;6.736;2024-03-23T03:41:08;22.47;;;7.43;;
79533;SDS011;68982;52.160;6.736;2024-03-23T03:43:33;19.50;;;7.27;;
79533;SDS011;68982;52.160;6.736;2024-03-23T03:45:59;21.42;;;6.55;;
79533;SDS011;68982;52.160;6.736;2024-03-23T03:48:26;23.80;;;7.38;;
79533;SDS011;68982;52.160;6.736;2024-03-23T03:50:52;25.27;;;7.40;;
79533;SDS011;68982;52.160;6.736;2024-03-23T03:53:18;13.63;;;6.40;;
79533;SDS011;68982;52.160;6.736;2024-03-23T03:55:44;20.83;;;6.85;;
79533;SDS011;68982;52.160;6.736;2024-03-23T03:58:09;24.67;;;7.63;;
79533;SDS011;68982;52.160;6.736;2024-03-23T04:00:35;16.73;;;7.30;;
79533;SDS011;68982;52.160;6.736;2024-03-23T04:03:00;25.20;;;7.70;;
79533;SDS011;68982;52.160;6.736;2024-03-23T04:05:26;19.90;;;6.78;;
79533;SDS011;68982;52.160;6.736;2024-03-23T04:07:51;21.15;;;7.90;;
79533;SDS011;68982;52.160;6.736;2024-03-23T04:10:17;20.65;;;7.82;;
79533;SDS011;68982;52.160;6.736;2024-03-23T04:12:43;21.53;;;7.53;;
79533;SDS011;68982;52.160;6.736;2024-03-23T04:15:09;18.70;;;7.95;;
79533;SDS011;68982;52.160;6.736;2024-03-23T04:17:35;18.98;;;7.70;;
79533;SDS011;68982;52.160;6.736;2024-03-23T04:20:01;19.88;;;7.47;;
79533;SDS011;68982;52.160;6.736;2024-03-23T04:22:29;18.60;;;8.32;;
79533;SDS011;68982;52.160;6.736;2024-03-23T04:24:54;23.40;;;8.32;;
79533;SDS011;68982;52.160;6.736;2024-03-23T04:27:21;24.00;;;7.85;;
79533;SDS011;68982;52.160;6.736;2024-03-23T04:29:49;18.35;;;7.57;;
79533;SDS011;68982;52.160;6.736;2024-03-23T04:32:16;25.50;;;8.60;;
79533;SDS011;68982;52.160;6.736;2024-03-23T04:34:42;23.23;;;7.75;;
79533;SDS011;68982;52.160;6.736;2024-03-23T04:37:09;22.40;;;9.73;;
79533;SDS011;68982;52.160;6.736;2024-03-23T04:39:38;26.20;;;9.10;;
79533;SDS011;68982;52.160;6.736;2024-03-23T04:42:03;17.27;;;8.25;;
79533;SDS011;68982;52.160;6.736;2024-03-23T04:44:29;22.70;;;9.02;;
79533;SDS011;68982;52.160;6.736;2024-03-23T04:46:55;19.88;;;7.82;;
79533;SDS011;68982;52.160;6.736;2024-03-23T04:49:21;25.05;;;9.32;;
79533;SDS011;68982;52.160;6.736;2024-03-23T04:51:47;18.73;;;8.20;;
79533;SDS011;68982;52.160;6.736;2024-03-23T04:54:12;22.45;;;9.35;;
79533;SDS011;68982;52.160;6.736;2024-03-23T04:56:38;21.92;;;9.35;;
79533;SDS011;68982;52.160;6.736;2024-03-23T04:59:03;23.10;;;9.45;;
79533;SDS011;68982;52.160;6.736;2024-03-23T05:01:30;22.05;;;9.38;;
79533;SDS011;68982;52.160;6.736;2024-03-23T05:03:56;24.60;;;9.05;;
79533;SDS011;68982;52.160;6.736;2024-03-23T05:06:22;24.02;;;9.27;;
79533;SDS011;68982;52.160;6.736;2024-03-23T05:08:48;26.23;;;10.10;;
79533;SDS011;68982;52.160;6.736;2024-03-23T05:11:13;30.17;;;10.37;;
79533;SDS011;68982;52.160;6.736;2024-03-23T05:13:38;22.07;;;9.53;;
79533;SDS011;68982;52.160;6.736;2024-03-23T05:16:04;22.67;;;9.73;;
79533;SDS011;68982;52.160;6.736;2024-03-23T05:18:29;25.33;;;10.40;;
79533;SDS011;68982;52.160;6.736;2024-03-23T05:20:58;23.88;;;10.57;;
79533;SDS011;68982;52.160;6.736;2024-03-23T05:23:24;22.52;;;9.98;;
79533;SDS011;68982;52.160;6.736;2024-03-23T05:25:49;33.38;;;11.75;;
79533;SDS011;68982;52.160;6.736;2024-03-23T05:28:15;30.55;;;11.27;;
79533;SDS011;68982;52.160;6.736;2024-03-23T05:30:40;29.70;;;11.30;;
79533;SDS011;68982;52.160;6.736;2024-03-23T05:33:06;20.60;;;10.00;;
79533;SDS011;68982;52.160;6.736;2024-03-23T05:35:32;25.08;;;10.98;;
79533;SDS011;68982;52.160;6.736;2024-03-23T05:37:57;21.40;;;9.50;;
79533;SDS011;68982;52.160;6.736;2024-03-23T05:40:26;22.10;;;10.05;;
79533;SDS011;68982;52.160;6.736;2024-03-23T05:42:52;24.27;;;10.68;;
79533;SDS011;68982;52.160;6.736;2024-03-23T05:45:23;22.50;;;10.40;;
79533;SDS011;68982;52.160;6.736;2024-03-23T05:47:49;26.17;;;11.23;;
79533;SDS011;68982;52.160;6.736;2024-03-23T05:50:14;26.10;;;11.65;;
79533;SDS011;68982;52.160;6.736;2024-03-23T05:52:39;23.50;;;11.00;;
79533;SDS011;68982;52.160;6.736;2024-03-23T05:55:05;28.50;;;11.77;;
79533;SDS011;68982;52.160;6.736;2024-03-23T05:57:31;26.52;;;11.68;;
79533;SDS011;68982;52.160;6.736;2024-03-23T05:59:56;27.63;;;12.07;;
79533;SDS011;68982;52.160;6.736;2024-03-23T06:02:22;30.17;;;12.40;;
79533;SDS011;68982;52.160;6.736;2024-03-23T06:04:47;31.73;;;12.70;;
79533;SDS011;68982;52.160;6.736;2024-03-23T06:07:13;26.02;;;10.70;;
79533;SDS011;68982;52.160;6.736;2024-03-23T06:09:42;24.42;;;10.60;;
79533;SDS011;68982;52.160;6.736;2024-03-23T06:12:07;32.63;;;11.73;;
79533;SDS011;68982;52.160;6.736;2024-03-23T06:14:33;25.30;;;11.23;;
79533;SDS011;68982;52.160;6.736;2024-03-23T06:16:59;26.50;;;10.95;;
79533;SDS011;68982;52.160;6.736;2024-03-23T06:19:25;29.20;;;10.20;;
79533;SDS011;68982;52.160;6.736;2024-03-23T06:21:54;25.98;;;11.90;;
79533;SDS011;68982;52.160;6.736;2024-03-23T06:24:21;20.95;;;11.05;;
79533;SDS011;68982;52.160;6.736;2024-03-23T06:26:47;22.45;;;10.57;;
79533;SDS011;68982;52.160;6.736;2024-03-23T06:29:13;23.15;;;11.20;;
79533;SDS011;68982;52.160;6.736;2024-03-23T06:31:38;24.95;;;9.88;;
79533;SDS011;68982;52.160;6.736;2024-03-23T06:34:04;23.65;;;10.98;;
79533;SDS011;68982;52.160;6.736;2024-03-23T06:36:29;23.50;;;10.32;;
79533;SDS011;68982;52.160;6.736;2024-03-23T06:38:55;23.38;;;9.60;;
79533;SDS011;68982;52.160;6.736;2024-03-23T06:41:21;29.98;;;11.68;;
79533;SDS011;68982;52.160;6.736;2024-03-23T06:43:46;18.10;;;9.52;;
79533;SDS011;68982;52.160;6.736;2024-03-23T06:46:12;23.40;;;8.90;;
79533;SDS011;68982;52.160;6.736;2024-03-23T06:48:37;19.50;;;8.17;;
79533;SDS011;68982;52.160;6.736;2024-03-23T06:51:02;17.27;;;7.57;;
79533;SDS011;68982;52.160;6.736;2024-03-23T06:53:28;20.50;;;8.10;;
79533;SDS011;68982;52.160;6.736;2024-03-23T06:55:54;20.65;;;8.15;;
79533;SDS011;68982;52.160;6.736;2024-03-23T06:58:20;20.55;;;8.15;;
79533;SDS011;68982;52.160;6.736;2024-03-23T07:00:46;27.52;;;7.95;;
79533;SDS011;68982;52.160;6.736;2024-03-23T07:03:12;24.95;;;9.40;;
79533;SDS011;68982;52.160;6.736;2024-03-23T07:05:37;19.65;;;7.60;;
79533;SDS011;68982;52.160;6.736;2024-03-23T07:08:03;18.90;;;7.72;;
79533;SDS011;68982;52.160;6.736;2024-03-23T07:10:28;20.92;;;8.25;;
79533;SDS011;68982;52.160;6.736;2024-03-23T07:12:54;17.75;;;7.53;;
79533;SDS011;68982;52.160;6.736;2024-03-23T07:15:19;16.00;;;7.00;;
79533;SDS011;68982;52.160;6.736;2024-03-23T07:17:46;17.85;;;6.65;;
79533;SDS011;68982;52.160;6.736;2024-03-23T07:20:12;16.25;;;5.80;;
79533;SDS011;68982;52.160;6.736;2024-03-23T07:22:38;15.75;;;6.30;;
79533;SDS011;68982;52.160;6.736;2024-03-23T07:25:04;20.40;;;6.93;;
79533;SDS011;68982;52.160;6.736;2024-03-23T07:27:31;16.85;;;5.55;;
79533;SDS011;68982;52.160;6.736;2024-03-23T07:29:56;19.60;;;6.05;;
79533;SDS011;68982;52.160;6.736;2024-03-23T07:32:21;16.35;;;5.70;;
79533;SDS011;68982;52.160;6.736;2024-03-23T07:34:47;14.63;;;4.80;;
79533;SDS011;68982;52.160;6.736;2024-03-23T07:37:12;13.82;;;4.43;;
79533;SDS011;68982;52.160;6.736;2024-03-23T07:39:41;11.63;;;4.00;;
79533;SDS011;68982;52.160;6.736;2024-03-23T07:42:07;11.60;;;4.47;;
79533;SDS011;68982;52.160;6.736;2024-03-23T07:44:32;14.00;;;4.27;;
79533;SDS011;68982;52.160;6.736;2024-03-23T07:46:58;9.43;;;3.70;;
79533;SDS011;68982;52.160;6.736;2024-03-23T07:49:25;9.15;;;4.15;;
79533;SDS011;68982;52.160;6.736;2024-03-23T07:51:51;13.70;;;4.03;;
79533;SDS011;68982;52.160;6.736;2024-03-23T07:54:16;11.50;;;3.80;;
79533;SDS011;68982;52.160;6.736;2024-03-23T07:56:41;15.97;;;3.80;;
79533;SDS011;68982;52.160;6.736;2024-03-23T07:59:07;11.07;;;6.13;;
79533;SDS011;68982;52.160;6.736;2024-03-23T08:01:32;9.23;;;3.17;;
79533;SDS011;68982;52.160;6.736;2024-03-23T08:03:57;9.88;;;3.45;;
79533;SDS011;68982;52.160;6.736;2024-03-23T08:06:23;10.02;;;3.40;;
79533;SDS011;68982;52.160;6.736;2024-03-23T08:08:51;16.73;;;3.53;;
79533;SDS011;68982;52.160;6.736;2024-03-23T08:11:28;8.48;;;2.95;;
79533;SDS011;68982;52.160;6.736;2024-03-23T08:13:54;13.65;;;3.55;;
79533;SDS011;68982;52.160;6.736;2024-03-23T08:16:20;13.32;;;2.85;;
79533;SDS011;68982;52.160;6.736;2024-03-23T08:18:45;7.63;;;3.15;;
79533;SDS011;68982;52.160;6.736;2024-03-23T08:21:11;11.15;;;2.90;;
79533;SDS011;68982;52.160;6.736;2024-03-23T08:23:36;8.27;;;2.50;;
79533;SDS011;68982;52.160;6.736;2024-03-23T08:26:06;11.18;;;3.03;;
79533;SDS011;68982;52.160;6.736;2024-03-23T08:28:32;10.75;;;2.65;;
79533;SDS011;68982;52.160;6.736;2024-03-23T08:31:01;8.23;;;3.13;;
79533;SDS011;68982;52.160;6.736;2024-03-23T08:33:28;15.63;;;3.70;;
79533;SDS011;68982;52.160;6.736;2024-03-23T08:35:57;7.70;;;2.40;;
79533;SDS011;68982;52.160;6.736;2024-03-23T08:38:24;8.50;;;2.63;;
79533;SDS011;68982;52.160;6.736;2024-03-23T08:41:01;5.97;;;2.63;;
79533;SDS011;68982;52.160;6.736;2024-03-23T08:43:28;9.65;;;2.67;;
79533;SDS011;68982;52.160;6.736;2024-03-23T08:46:03;12.05;;;2.80;;
79533;SDS011;68982;52.160;6.736;2024-03-23T08:48:30;5.13;;;2.80;;
79533;SDS011;68982;52.160;6.736;2024-03-23T08:51:02;12.07;;;3.15;;
79533;SDS011;68982;52.160;6.736;2024-03-23T08:53:29;10.07;;;3.05;;
79533;SDS011;68982;52.160;6.736;2024-03-23T08:55:55;5.72;;;2.97;;
79533;SDS011;68982;52.160;6.736;2024-03-23T08:58:22;6.63;;;2.75;;
79533;SDS011;68982;52.160;6.736;2024-03-23T09:00:49;7.32;;;3.13;;
79533;SDS011;68982;52.160;6.736;2024-03-23T09:03:14;7.13;;;2.75;;
79533;SDS011;68982;52.160;6.736;2024-03-23T09:05:40;8.70;;;2.77;;
79533;SDS011;68982;52.160;6.736;2024-03-23T09:08:05;9.32;;;2.83;;
79533;SDS011;68982;52.160;6.736;2024-03-23T09:10:31;9.35;;;2.67;;
79533;SDS011;68982;52.160;6.736;2024-03-23T09:12:57;9.80;;;3.42;;
79533;SDS011;68982;52.160;6.736;2024-03-23T09:15:22;8.70;;;2.90;;
79533;SDS011;68982;52.160;6.736;2024-03-23T09:17:47;7.50;;;2.83;;
79533;SDS011;68982;52.160;6.736;2024-03-23T09:20:13;9.77;;;3.07;;
79533;SDS011;68982;52.160;6.736;2024-03-23T09:22:38;7.57;;;2.97;;
79533;SDS011;68982;52.160;6.736;2024-03-23T09:25:03;9.10;;;2.50;;
79533;SDS011;68982;52.160;6.736;2024-03-23T09:27:30;10.20;;;2.65;;
79533;SDS011;68982;52.160;6.736;2024-03-23T09:29:55;7.72;;;2.50;;
79533;SDS011;68982;52.160;6.736;2024-03-23T09:32:21;4.90;;;2.30;;
79533;SDS011;68982;52.160;6.736;2024-03-23T09:34:46;7.77;;;2.77;;
79533;SDS011;68982;52.160;6.736;2024-03-23T09:37:11;6.83;;;2.63;;
79533;SDS011;68982;52.160;6.736;2024-03-23T09:39:37;6.18;;;2.22;;
79533;SDS011;68982;52.160;6.736;2024-03-23T09:42:02;10.30;;;2.87;;
79533;SDS011;68982;52.160;6.736;2024-03-23T09:44:29;5.72;;;2.30;;
79533;SDS011;68982;52.160;6.736;2024-03-23T09:46:54;5.38;;;1.75;;
79533;SDS011;68982;52.160;6.736;2024-03-23T09:49:20;5.90;;;2.03;;
79533;SDS011;68982;52.160;6.736;2024-03-23T09:51:46;8.80;;;2.30;;
79533;SDS011;68982;52.160;6.736;2024-03-23T09:54:11;6.28;;;2.20;;
79533;SDS011;68982;52.160;6.736;2024-03-23T09:56:37;4.88;;;1.77;;
79533;SDS011;68982;52.160;6.736;2024-03-23T09:59:02;8.30;;;2.10;;
79533;SDS011;68982;52.160;6.736;2024-03-23T10:01:30;10.02;;;2.47;;
79533;SDS011;68982;52.160;6.736;2024-03-23T10:03:55;7.75;;;1.83;;
79533;SDS011;68982;52.160;6.736;2024-03-23T10:06:21;7.80;;;2.25;;
79533;SDS011;68982;52.160;6.736;2024-03-23T10:08:49;3.97;;;1.80;;
79533;SDS011;68982;52.160;6.736;2024-03-23T10:11:15;7.30;;;2.63;;
79533;SDS011;68982;52.160;6.736;2024-03-23T10:13:42;7.05;;;1.92;;
79533;SDS011;68982;52.160;6.736;2024-03-23T10:16:08;8.82;;;2.30;;
79533;SDS011;68982;52.160;6.736;2024-03-23T10:18:41;6.70;;;1.73;;
79533;SDS011;68982;52.160;6.736;2024-03-23T10:23:32;4.07;;;1.88;;
79533;SDS011;68982;52.160;6.736;2024-03-23T10:29:17;6.63;;;1.95;;
79533;SDS011;68982;52.160;6.736;2024-03-23T10:31:37;6.82;;;1.60;;
79533;SDS011;68982;52.160;6.736;2024-03-23T10:34:06;4.95;;;1.83;;
79533;SDS011;68982;52.160;6.736;2024-03-23T10:36:32;6.60;;;1.88;;
79533;SDS011;68982;52.160;6.736;2024-03-23T10:38:59;5.07;;;1.80;;
79533;SDS011;68982;52.160;6.736;2024-03-23T10:41:28;10.73;;;2.67;;
79533;SDS011;68982;52.160;6.736;2024-03-23T10:43:55;6.22;;;1.83;;
79533;SDS011;68982;52.160;6.736;2024-03-23T10:46:21;3.88;;;1.92;;
79533;SDS011;68982;52.160;6.736;2024-03-23T10:48:46;4.30;;;1.52;;
79533;SDS011;68982;52.160;6.736;2024-03-23T10:51:12;5.72;;;2.05;;
79533;SDS011;68982;52.160;6.736;2024-03-23T10:53:39;4.85;;;1.50;;
79533;SDS011;68982;52.160;6.736;2024-03-23T10:56:05;6.53;;;1.50;;
79533;SDS011;68982;52.160;6.736;2024-03-23T10:58:33;3.20;;;1.45;;
79533;SDS011;68982;52.160;6.736;2024-03-23T11:01:03;5.38;;;1.70;;
79533;SDS011;68982;52.160;6.736;2024-03-23T11:03:29;4.40;;;1.42;;
79533;SDS011;68982;52.160;6.736;2024-03-23T11:05:56;6.18;;;1.52;;
79533;SDS011;68982;52.160;6.736;2024-03-23T11:08:31;3.17;;;1.30;;
79533;SDS011;68982;52.160;6.736;2024-03-23T11:13:38;5.05;;;1.73;;
79533;SDS011;68982;52.160;6.736;2024-03-23T11:16:13;6.63;;;1.83;;
79533;SDS011;68982;52.160;6.736;2024-03-23T11:18:46;6.28;;;1.67;;
79533;SDS011;68982;52.160;6.736;2024-03-23T11:21:13;2.72;;;0.95;;
79533;SDS011;68982;52.160;6.736;2024-03-23T11:24:15;2.97;;;1.10;;
79533;SDS011;68982;52.160;6.736;2024-03-23T11:26:40;4.22;;;1.00;;
79533;SDS011;68982;52.160;6.736;2024-03-23T11:29:13;3.47;;;1.88;;
79533;SDS011;68982;52.160;6.736;2024-03-23T11:31:45;5.75;;;1.50;;
79533;SDS011;68982;52.160;6.736;2024-03-23T11:34:11;4.63;;;1.80;;
79533;SDS011;68982;52.160;6.736;2024-03-23T11:36:37;5.88;;;1.70;;
79533;SDS011;68982;52.160;6.736;2024-03-23T11:39:14;3.93;;;1.30;;
79533;SDS011;68982;52.160;6.736;2024-03-23T11:41:50;3.50;;;1.30;;
79533;SDS011;68982;52.160;6.736;2024-03-23T11:44:20;3.95;;;1.42;;
79533;SDS011;68982;52.160;6.736;2024-03-23T11:46:47;3.63;;;1.98;;
79533;SDS011;68982;52.160;6.736;2024-03-23T11:49:26;2.80;;;1.10;;
79533;SDS011;68982;52.160;6.736;2024-03-23T11:51:52;3.20;;;1.23;;
79533;SDS011;68982;52.160;6.736;2024-03-23T11:54:20;2.33;;;0.93;;
79533;SDS011;68982;52.160;6.736;2024-03-23T11:59:38;5.95;;;1.63;;
79533;SDS011;68982;52.160;6.736;2024-03-23T12:02:07;5.50;;;1.67;;
79533;SDS011;68982;52.160;6.736;2024-03-23T12:04:33;3.30;;;1.95;;
79533;SDS011;68982;52.160;6.736;2024-03-23T12:09:35;5.53;;;1.55;;
79533;SDS011;68982;52.160;6.736;2024-03-23T12:14:36;7.50;;;1.60;;
79533;SDS011;68982;52.160;6.736;2024-03-23T12:17:12;4.80;;;1.63;;
79533;SDS011;68982;52.160;6.736;2024-03-23T12:19:38;4.60;;;1.58;;
79533;SDS011;68982;52.160;6.736;2024-03-23T12:22:07;3.78;;;1.80;;
79533;SDS011;68982;52.160;6.736;2024-03-23T12:24:33;4.93;;;3.17;;
79533;SDS011;68982;52.160;6.736;2024-03-23T12:26:59;6.03;;;1.13;;
79533;SDS011;68982;52.160;6.736;2024-03-23T12:29:27;2.85;;;1.02;;
79533;SDS011;68982;52.160;6.736;2024-03-23T12:31:53;2.72;;;1.25;;
79533;SDS011;68982;52.160;6.736;2024-03-23T12:34:18;2.60;;;1.23;;
79533;SDS011;68982;52.160;6.736;2024-03-23T12:36:44;3.72;;;2.10;;
79533;SDS011;68982;52.160;6.736;2024-03-23T12:39:09;4.75;;;1.25;;
79533;SDS011;68982;52.160;6.736;2024-03-23T12:41:34;4.47;;;1.07;;
79533;SDS011;68982;52.160;6.736;2024-03-23T12:44:00;4.47;;;1.40;;
79533;SDS011;68982;52.160;6.736;2024-03-23T12:46:25;2.67;;;0.93;;
79533;SDS011;68982;52.160;6.736;2024-03-23T12:48:50;3.90;;;0.83;;
79533;SDS011;68982;52.160;6.736;2024-03-23T12:51:16;2.17;;;0.95;;
79533;SDS011;68982;52.160;6.736;2024-03-23T12:53:41;3.45;;;1.27;;
79533;SDS011;68982;52.160;6.736;2024-03-23T12:56:07;3.97;;;1.10;;
79533;SDS011;68982;52.160;6.736;2024-03-23T12:58:32;4.95;;;1.40;;
79533;SDS011;68982;52.160;6.736;2024-03-23T13:00:58;4.77;;;1.30;;
79533;SDS011;68982;52.160;6.736;2024-03-23T13:03:24;7.18;;;1.70;;
79533;SDS011;68982;52.160;6.736;2024-03-23T13:05:52;3.00;;;1.37;;
79533;SDS011;68982;52.160;6.736;2024-03-23T13:08:17;3.60;;;1.10;;
79533;SDS011;68982;52.160;6.736;2024-03-23T13:10:43;2.55;;;1.08;;
79533;SDS011;68982;52.160;6.736;2024-03-23T13:13:09;4.32;;;1.27;;
79533;SDS011;68982;52.160;6.736;2024-03-23T13:15:35;5.85;;;1.42;;
79533;SDS011;68982;52.160;6.736;2024-03-23T13:18:00;3.88;;;1.30;;
79533;SDS011;68982;52.160;6.736;2024-03-23T13:20:26;3.00;;;1.52;;
79533;SDS011;68982;52.160;6.736;2024-03-23T13:22:51;4.97;;;1.05;;
79533;SDS011;68982;52.160;6.736;2024-03-23T13:25:17;3.28;;;1.20;;
79533;SDS011;68982;52.160;6.736;2024-03-23T13:27:43;4.97;;;1.33;;
79533;SDS011;68982;52.160;6.736;2024-03-23T13:30:09;5.85;;;1.48;;
79533;SDS011;68982;52.160;6.736;2024-03-23T13:32:35;3.72;;;1.50;;
79533;SDS011;68982;52.160;6.736;2024-03-23T13:35:00;5.80;;;1.52;;
79533;SDS011;68982;52.160;6.736;2024-03-23T13:37:26;4.93;;;1.33;;
79533;SDS011;68982;52.160;6.736;2024-03-23T13:39:51;5.25;;;1.40;;
79533;SDS011;68982;52.160;6.736;2024-03-23T13:42:17;5.38;;;1.67;;
79533;SDS011;68982;52.160;6.736;2024-03-23T13:44:42;4.97;;;1.20;;
79533;SDS011;68982;52.160;6.736;2024-03-23T13:47:08;6.43;;;1.65;;
79533;SDS011;68982;52.160;6.736;2024-03-23T13:49:33;4.90;;;1.33;;
79533;SDS011;68982;52.160;6.736;2024-03-23T13:51:59;5.53;;;1.55;;
79533;SDS011;68982;52.160;6.736;2024-03-23T13:54:25;3.47;;;1.30;;
79533;SDS011;68982;52.160;6.736;2024-03-23T13:56:51;6.50;;;1.45;;
79533;SDS011;68982;52.160;6.736;2024-03-23T13:59:17;3.97;;;1.30;;
79533;SDS011;68982;52.160;6.736;2024-03-23T14:01:43;3.97;;;1.58;;
79533;SDS011;68982;52.160;6.736;2024-03-23T14:04:10;5.45;;;1.40;;
79533;SDS011;68982;52.160;6.736;2024-03-23T14:06:36;4.25;;;1.23;;
79533;SDS011;68982;52.160;6.736;2024-03-23T14:09:02;2.47;;;0.98;;
79533;SDS011;68982;52.160;6.736;2024-03-23T14:11:28;8.43;;;1.58;;
79533;SDS011;68982;52.160;6.736;2024-03-23T14:13:54;3.60;;;1.65;;
79533;SDS011;68982;52.160;6.736;2024-03-23T14:16:19;7.88;;;1.92;;
79533;SDS011;68982;52.160;6.736;2024-03-23T14:18:48;3.88;;;1.75;;
79533;SDS011;68982;52.160;6.736;2024-03-23T14:21:13;4.68;;;1.30;;
79533;SDS011;68982;52.160;6.736;2024-03-23T14:23:39;11.73;;;3.35;;
79533;SDS011;68982;52.160;6.736;2024-03-23T14:26:05;7.53;;;2.13;;
79533;SDS011;68982;52.160;6.736;2024-03-23T14:28:31;9.80;;;1.65;;
79533;SDS011;68982;52.160;6.736;2024-03-23T14:30:57;5.65;;;1.70;;
79533;SDS011;68982;52.160;6.736;2024-03-23T14:33:22;5.38;;;1.40;;
79533;SDS011;68982;52.160;6.736;2024-03-23T14:35:52;4.47;;;1.17;;
79533;SDS011;68982;52.160;6.736;2024-03-23T14:38:22;4.32;;;1.65;;
79533;SDS011;68982;52.160;6.736;2024-03-23T14:40:47;2.88;;;1.02;;
79533;SDS011;68982;52.160;6.736;2024-03-23T14:43:13;3.13;;;0.77;;
79533;SDS011;68982;52.160;6.736;2024-03-23T14:48:31;3.95;;;1.10;;
79533;SDS011;68982;52.160;6.736;2024-03-23T14:50:57;4.65;;;1.10;;
79533;SDS011;68982;52.160;6.736;2024-03-23T14:53:24;4.68;;;1.30;;
79533;SDS011;68982;52.160;6.736;2024-03-23T14:55:51;6.45;;;1.55;;
79533;SDS011;68982;52.160;6.736;2024-03-23T14:58:16;4.07;;;1.30;;
79533;SDS011;68982;52.160;6.736;2024-03-23T15:00:41;4.23;;;1.90;;
79533;SDS011;68982;52.160;6.736;2024-03-23T15:03:07;6.20;;;1.63;;
79533;SDS011;68982;52.160;6.736;2024-03-23T15:05:32;6.10;;;1.30;;
79533;SDS011;68982;52.160;6.736;2024-03-23T15:07:57;2.90;;;1.10;;
79533;SDS011;68982;52.160;6.736;2024-03-23T15:10:23;4.07;;;1.35;;
79533;SDS011;68982;52.160;6.736;2024-03-23T15:12:48;4.15;;;1.77;;
79533;SDS011;68982;52.160;6.736;2024-03-23T15:15:14;3.50;;;1.23;;
79533;SDS011;68982;52.160;6.736;2024-03-23T15:17:40;5.85;;;2.00;;
79533;SDS011;68982;52.160;6.736;2024-03-23T15:20:09;2.80;;;0.90;;
79533;SDS011;68982;52.160;6.736;2024-03-23T15:22:36;5.13;;;1.15;;
79533;SDS011;68982;52.160;6.736;2024-03-23T15:25:02;5.68;;;1.20;;
79533;SDS011;68982;52.160;6.736;2024-03-23T15:27:27;2.80;;;1.25;;
79533;SDS011;68982;52.160;6.736;2024-03-23T15:29:52;6.90;;;1.27;;
79533;SDS011;68982;52.160;6.736;2024-03-23T15:32:18;5.20;;;1.50;;
79533;SDS011;68982;52.160;6.736;2024-03-23T15:34:43;5.87;;;1.13;;
79533;SDS011;68982;52.160;6.736;2024-03-23T15:37:08;4.73;;;1.53;;
79533;SDS011;68982;52.160;6.736;2024-03-23T15:39:34;4.10;;;1.13;;
79533;SDS011;68982;52.160;6.736;2024-03-23T15:41:59;6.03;;;1.20;;
79533;SDS011;68982;52.160;6.736;2024-03-23T15:44:24;3.45;;;1.42;;
79533;SDS011;68982;52.160;6.736;2024-03-23T15:46:50;3.43;;;1.23;;
79533;SDS011;68982;52.160;6.736;2024-03-23T15:49:15;3.75;;;1.02;;